Time;durP1;ratioP1;P1;durP2;ratioP2;P2;SDS_P1;SDS_P2;PMS_P1;PMS_P2;Temp;Humidity;BMP_temperature;BMP_pressure;BME280_temperature;BME280_humidity;BME280_pressure;Samples;Min_cycle;Max_cycle;Signal;HPM_P1;HPM_P2
2022/10/25 00:01:44;;;;;;;;;;;20.00;74.70;;;;;;4480968;31;20385;-69
2022/10/25 00:04:09;;;;;;;;;;;20.00;74.70;;;;;;4495288;31;20075;-69
2022/10/25 00:06:35;;;;;;;;;;;19.90;74.60;;;;;;4495170;31;20107;-68
2022/10/25 00:09:01;;;;;;;;;;;20.00;75.50;;;;;;4495409;31;20346;-69
2022/10/25 00:11:27;;;;;;;;;;;20.00;74.70;;;;;;4495006;31;20125;-69
2022/10/25 00:13:54;;;;;;;;;;;19.90;74.60;;;;;;4494892;31;19980;-69
2022/10/25 00:16:22;;;;;;;;;;;19.90;75.40;;;;;;4494639;31;20052;-69
2022/10/25 00:18:48;;;;;;;;;;;19.90;74.60;;;;;;4495163;31;20419;-69
2022/10/25 00:21:13;;;;;;;;;;;19.90;74.60;;;;;;4494639;31;20091;-69
2022/10/25 00:23:39;;;;;;;;;;;19.90;74.60;;;;;;4494789;31;19980;-69
2022/10/25 00:26:05;;;;;;;;;;;19.90;74.60;;;;;;4495021;31;19961;-69
2022/10/25 00:28:31;;;;;;;;;;;19.90;74.60;;;;;;4494788;31;20131;-69
2022/10/25 00:31:01;;;;;;;;;;;19.90;74.60;;;;;;4494518;31;19966;-69
2022/10/25 00:33:30;;;;;;;;;;;19.90;74.60;;;;;;4494889;31;20083;-69
2022/10/25 00:36:02;;;;;;;;;;;19.90;74.60;;;;;;4494389;31;19985;-69
2022/10/25 00:38:27;;;;;;;;;;;19.90;74.60;;;;;;4494891;31;19989;-69
2022/10/25 00:40:53;;;;;;;;;;;19.90;74.60;;;;;;4494669;31;19970;-69
2022/10/25 00:43:30;;;;;;;;;;;19.90;74.60;;;;;;4467156;31;19977;-69
2022/10/25 00:45:55;;;;;;;;;;;19.80;74.50;;;;;;4494511;31;20029;-69
2022/10/25 00:48:22;;;;;;;;;;;19.80;74.50;;;;;;4494680;31;19989;-69
2022/10/25 00:50:49;;;;;;;;;;;19.80;74.50;;;;;;4494161;31;19962;-69
2022/10/25 00:53:21;;;;;;;;;;;19.80;74.50;;;;;;4494362;31;19985;-69
2022/10/25 00:55:50;;;;;;;;;;;19.80;74.50;;;;;;4494395;31;19977;-69
2022/10/25 00:58:20;;;;;;;;;;;19.80;74.50;;;;;;4494061;31;19974;-70
2022/10/25 01:00:47;;;;;;;;;;;19.80;74.50;;;;;;4493915;31;19981;-69
2022/10/25 01:03:14;;;;;;;;;;;19.80;74.50;;;;;;4494124;31;19989;-69
2022/10/25 01:05:39;;;;;;;;;;;19.80;74.60;;;;;;4494266;31;20059;-69
2022/10/25 01:08:05;;;;;;;;;;;19.80;74.50;;;;;;4494165;31;20087;-69
2022/10/25 01:10:31;;;;;;;;;;;19.80;74.50;;;;;;4493890;31;20373;-68
2022/10/25 01:12:58;;;;;;;;;;;19.80;74.40;;;;;;4493742;31;20554;-69
2022/10/25 01:15:28;;;;;;;;;;;19.80;74.50;;;;;;4493797;31;20335;-70
2022/10/25 01:17:56;;;;;;;;;;;19.80;74.50;;;;;;4494379;31;19970;-69
2022/10/25 01:20:22;;;;;;;;;;;19.80;74.40;;;;;;4493976;31;20304;-69
2022/10/25 01:22:48;;;;;;;;;;;19.70;74.40;;;;;;4493869;31;19976;-69
2022/10/25 01:25:23;;;;;;;;;;;19.70;74.40;;;;;;4493990;31;19966;-69
2022/10/25 01:28:05;;;;;;;;;;;19.70;74.40;;;;;;4493852;31;19992;-69
2022/10/25 01:30:49;;;;;;;;;;;19.70;74.30;;;;;;4493803;31;19988;-69
2022/10/25 01:33:19;;;;;;;;;;;19.70;74.40;;;;;;4493790;31;20103;-69
2022/10/25 01:35:54;;;;;;;;;;;19.70;74.40;;;;;;4493490;31;19989;-69
2022/10/25 01:38:45;;;;;;;;;;;19.70;74.40;;;;;;4493420;31;20009;-69
2022/10/25 01:41:17;;;;;;;;;;;19.70;74.40;;;;;;4493687;31;20054;-70
2022/10/25 01:44:03;;;;;;;;;;;19.70;74.30;;;;;;4493840;31;20000;-69
2022/10/25 01:46:39;;;;;;;;;;;19.70;74.40;;;;;;4468819;31;20115;-69
2022/10/25 01:49:10;;;;;;;;;;;19.70;74.30;;;;;;4493308;31;19993;-69
2022/10/25 01:51:36;;;;;;;;;;;19.70;74.30;;;;;;4493535;31;19966;-69
2022/10/25 01:54:02;;;;;;;;;;;19.70;74.30;;;;;;4493699;31;20020;-68
2022/10/25 01:56:40;;;;;;;;;;;19.70;74.30;;;;;;4493422;31;20298;-69
2022/10/25 01:59:12;;;;;;;;;;;19.70;74.20;;;;;;4493505;31;20345;-69
2022/10/25 02:01:48;;;;;;;;;;;19.70;74.30;;;;;;4493463;31;20027;-69
2022/10/25 02:04:18;;;;;;;;;;;19.70;74.30;;;;;;4493274;31;20319;-69
2022/10/25 02:06:50;;;;;;;;;;;19.60;74.30;;;;;;4493588;31;20404;-69
2022/10/25 02:09:19;;;;;;;;;;;19.60;74.30;;;;;;4492982;31;20046;-69
2022/10/25 02:11:45;;;;;;;;;;;19.60;74.20;;;;;;4478479;32;19965;-69
2022/10/25 02:14:13;;;;;;;;;;;19.60;74.20;;;;;;4478667;31;19977;-69
2022/10/25 02:16:42;;;;;;;;;;;19.60;74.20;;;;;;4493142;31;20387;-69
2022/10/25 02:19:10;;;;;;;;;;;19.60;74.20;;;;;;4492937;31;19965;-70
2022/10/25 02:21:36;;;;;;;;;;;19.60;74.20;;;;;;4492841;31;19989;-69
2022/10/25 02:24:11;;;;;;;;;;;19.60;74.20;;;;;;4492982;31;20020;-69
2022/10/25 02:26:37;;;;;;;;;;;19.60;74.30;;;;;;4492741;31;19984;-69
2022/10/25 02:29:03;;;;;;;;;;;19.60;74.20;;;;;;4493002;31;20444;-69
2022/10/25 02:31:29;;;;;;;;;;;19.60;74.20;;;;;;4492769;31;20502;-69
2022/10/25 02:33:55;;;;;;;;;;;19.60;74.30;;;;;;4493238;31;19965;-69
2022/10/25 02:36:22;;;;;;;;;;;19.60;74.30;;;;;;4492887;31;20043;-70
2022/10/25 02:38:49;;;;;;;;;;;19.60;74.30;;;;;;4492689;31;19983;-69
2022/10/25 02:41:14;;;;;;;;;;;19.60;74.30;;;;;;4492602;31;19977;-70
2022/10/25 02:43:40;;;;;;;;;;;19.60;74.40;;;;;;4492894;31;20103;-69
2022/10/25 02:46:07;;;;;;;;;;;19.60;74.40;;;;;;4493342;31;19973;-70
2022/10/25 02:48:33;;;;;;;;;;;19.60;74.30;;;;;;4492551;31;20110;-69
2022/10/25 02:50:59;;;;;;;;;;;19.60;74.40;;;;;;4492488;31;19993;-69
2022/10/25 02:53:25;;;;;;;;;;;19.60;74.40;;;;;;4492752;31;19969;-69
2022/10/25 02:56:04;;;;;;;;;;;19.60;74.40;;;;;;4478540;31;20580;-69
2022/10/25 02:58:31;;;;;;;;;;;19.50;74.30;;;;;;4492685;31;19977;-69
2022/10/25 03:00:57;;;;;;;;;;;19.50;74.30;;;;;;4492665;31;19985;-69
2022/10/25 03:03:23;;;;;;;;;;;19.50;74.30;;;;;;4492340;31;19989;-69
2022/10/25 03:05:49;;;;;;;;;;;19.50;74.30;;;;;;4492311;32;20389;-69
2022/10/25 03:08:14;;;;;;;;;;;19.50;74.30;;;;;;4492649;32;19984;-69
2022/10/25 03:10:40;;;;;;;;;;;19.50;74.30;;;;;;4492551;32;20372;-72
2022/10/25 03:13:06;;;;;;;;;;;19.50;74.30;;;;;;4492343;32;20350;-69
2022/10/25 03:15:31;;;;;;;;;;;19.50;74.30;;;;;;4492325;32;20001;-69
2022/10/25 03:17:57;;;;;;;;;;;19.50;74.30;;;;;;4492632;32;19982;-69
2022/10/25 03:20:23;;;;;;;;;;;19.50;74.30;;;;;;4492559;32;20472;-69
2022/10/25 03:22:48;;;;;;;;;;;19.50;74.30;;;;;;4492281;31;19965;-70
2022/10/25 03:25:14;;;;;;;;;;;19.50;74.30;;;;;;4495610;31;19969;-69
2022/10/25 03:27:40;;;;;;;;;;;19.50;74.30;;;;;;4495701;31;20083;-69
2022/10/25 03:30:06;;;;;;;;;;;19.50;74.30;;;;;;4495603;31;19961;-69
2022/10/25 03:32:31;;;;;;;;;;;19.50;74.30;;;;;;4495615;31;20074;-69
2022/10/25 03:34:57;;;;;;;;;;;19.50;74.30;;;;;;4495781;31;20092;-69
2022/10/25 03:37:23;;;;;;;;;;;19.50;74.30;;;;;;4495503;31;19981;-69
2022/10/25 03:39:48;;;;;;;;;;;19.50;74.30;;;;;;4495725;31;20379;-69
2022/10/25 03:42:14;;;;;;;;;;;19.50;74.30;;;;;;4495775;31;20103;-70
2022/10/25 03:44:39;;;;;;;;;;;19.40;74.20;;;;;;4495021;31;20094;-69
2022/10/25 03:47:05;;;;;;;;;;;19.50;74.30;;;;;;4495673;31;19965;-69
2022/10/25 03:49:31;;;;;;;;;;;19.40;74.20;;;;;;4495650;31;19966;-69
2022/10/25 03:51:57;;;;;;;;;;;19.50;74.30;;;;;;4495354;31;19981;-69
2022/10/25 03:54:23;;;;;;;;;;;19.40;74.30;;;;;;4495531;31;19961;-69
2022/10/25 03:56:48;;;;;;;;;;;19.40;74.20;;;;;;4495245;31;19980;-69
2022/10/25 03:59:14;;;;;;;;;;;19.50;74.30;;;;;;4495446;31;19973;-69
2022/10/25 04:01:40;;;;;;;;;;;19.40;74.20;;;;;;4495427;31;19969;-69
2022/10/25 04:04:06;;;;;;;;;;;19.40;74.30;;;;;;4495048;31;20046;-69
2022/10/25 04:06:31;;;;;;;;;;;19.40;74.20;;;;;;4495083;31;19977;-69
2022/10/25 04:08:57;;;;;;;;;;;19.40;74.20;;;;;;4495039;31;20024;-69
2022/10/25 04:11:22;;;;;;;;;;;19.40;74.30;;;;;;4494795;31;20048;-69
2022/10/25 04:13:48;;;;;;;;;;;19.40;74.30;;;;;;4494638;31;20011;-70
2022/10/25 04:16:16;;;;;;;;;;;19.40;74.30;;;;;;4494805;31;19962;-69
2022/10/25 04:18:41;;;;;;;;;;;19.40;74.30;;;;;;4494959;31;19977;-69
2022/10/25 04:21:07;;;;;;;;;;;19.40;74.20;;;;;;4494878;31;19980;-69
2022/10/25 04:23:33;;;;;;;;;;;19.40;74.30;;;;;;4494783;31;20001;-69
2022/10/25 04:25:58;;;;;;;;;;;19.40;74.30;;;;;;4494844;31;20368;-69
2022/10/25 04:28:25;;;;;;;;;;;19.40;74.30;;;;;;4494858;31;20028;-68
2022/10/25 04:30:50;;;;;;;;;;;19.40;74.30;;;;;;4494986;31;20119;-70
2022/10/25 04:33:16;;;;;;;;;;;19.40;74.30;;;;;;4494729;31;19978;-69
2022/10/25 04:35:42;;;;;;;;;;;19.40;74.30;;;;;;4494323;31;20013;-71
2022/10/25 04:38:09;;;;;;;;;;;19.40;74.30;;;;;;4494892;31;19981;-69
2022/10/25 04:40:34;;;;;;;;;;;19.30;74.20;;;;;;4494400;31;20404;-69
2022/10/25 04:43:01;;;;;;;;;;;19.30;74.20;;;;;;4494688;31;19981;-69
2022/10/25 04:45:29;;;;;;;;;;;19.40;74.30;;;;;;4494655;31;20054;-69
2022/10/25 04:47:55;;;;;;;;;;;19.40;74.30;;;;;;4494264;31;19985;-69
2022/10/25 04:50:21;;;;;;;;;;;19.30;74.30;;;;;;4494759;31;20111;-69
2022/10/25 04:52:48;;;;;;;;;;;19.30;74.20;;;;;;4494431;31;20083;-69
2022/10/25 04:55:18;;;;;;;;;;;19.30;74.30;;;;;;4494616;31;19977;-69
2022/10/25 04:57:43;;;;;;;;;;;19.30;74.30;;;;;;4494054;31;19980;-69
2022/10/25 05:00:09;;;;;;;;;;;19.30;74.30;;;;;;4494339;31;20031;-69
2022/10/25 05:02:35;;;;;;;;;;;19.30;74.20;;;;;;4494463;31;20363;-69
2022/10/25 05:05:01;;;;;;;;;;;19.30;74.30;;;;;;4494160;31;19978;-69
2022/10/25 05:07:26;;;;;;;;;;;19.30;74.20;;;;;;4480014;31;20410;-69
2022/10/25 05:09:52;;;;;;;;;;;19.30;74.30;;;;;;4494170;31;20083;-69
2022/10/25 05:12:18;;;;;;;;;;;19.30;74.20;;;;;;4494154;31;20439;-69
2022/10/25 05:14:43;;;;;;;;;;;19.30;74.30;;;;;;4494268;31;19978;-69
2022/10/25 05:17:09;;;;;;;;;;;19.30;74.20;;;;;;4493613;31;19970;-69
2022/10/25 05:19:35;;;;;;;;;;;19.30;74.20;;;;;;4493788;31;19973;-68
2022/10/25 05:22:01;;;;;;;;;;;19.30;74.30;;;;;;4493724;31;20040;-68
2022/10/25 05:24:26;;;;;;;;;;;19.30;74.00;;;;;;4493949;31;19977;-68
2022/10/25 05:26:52;;;;;;;;;;;19.30;74.00;;;;;;4494163;31;20200;-68
2022/10/25 05:29:18;;;;;;;;;;;19.30;74.00;;;;;;4494069;31;20032;-69
2022/10/25 05:31:43;;;;;;;;;;;19.30;74.10;;;;;;4493854;31;19984;-69
2022/10/25 05:34:09;;;;;;;;;;;19.30;74.10;;;;;;4494077;31;20051;-68
2022/10/25 05:36:35;;;;;;;;;;;19.30;74.30;;;;;;4494008;31;20416;-68
2022/10/25 05:39:01;;;;;;;;;;;19.30;74.40;;;;;;4493917;31;19973;-69
2022/10/25 05:41:26;;;;;;;;;;;19.20;74.40;;;;;;4493639;31;20353;-68
2022/10/25 05:43:52;;;;;;;;;;;19.30;74.50;;;;;;4493459;31;20001;-68
2022/10/25 05:46:19;;;;;;;;;;;19.30;74.70;;;;;;4493552;31;20091;-69
2022/10/25 05:48:46;;;;;;;;;;;19.30;74.60;;;;;;4493643;31;20039;-69
2022/10/25 05:51:18;;;;;;;;;;;19.30;74.70;;;;;;4493778;31;19981;-68
2022/10/25 05:53:45;;;;;;;;;;;19.30;74.60;;;;;;4493465;31;19992;-68
2022/10/25 05:56:11;;;;;;;;;;;19.20;74.50;;;;;;4493488;31;20322;-69
2022/10/25 05:58:37;;;;;;;;;;;19.30;74.50;;;;;;4493118;31;19980;-68
2022/10/25 06:01:03;;;;;;;;;;;19.30;74.50;;;;;;4479230;31;20067;-68
2022/10/25 06:03:28;;;;;;;;;;;19.30;74.50;;;;;;4493259;31;19982;-69
2022/10/25 06:05:58;;;;;;;;;;;19.30;74.50;;;;;;4493014;31;20384;-68
2022/10/25 06:08:24;;;;;;;;;;;19.20;74.40;;;;;;4493222;31;19977;-68
2022/10/25 06:10:49;;;;;;;;;;;19.30;74.50;;;;;;4493180;31;19966;-68
2022/10/25 06:13:15;;;;;;;;;;;19.30;74.50;;;;;;4492975;31;20103;-69
2022/10/25 06:15:41;;;;;;;;;;;19.20;74.50;;;;;;4492934;31;19982;-68
2022/10/25 06:18:06;;;;;;;;;;;19.20;74.60;;;;;;4493238;31;20291;-68
2022/10/25 06:20:32;;;;;;;;;;;19.20;74.50;;;;;;4493137;31;20010;-67
2022/10/25 06:22:58;;;;;;;;;;;19.30;74.60;;;;;;4492774;31;20363;-69
2022/10/25 06:25:23;;;;;;;;;;;19.30;74.60;;;;;;4492789;31;20071;-69
2022/10/25 06:27:49;;;;;;;;;;;19.30;74.60;;;;;;4492992;31;19977;-69
2022/10/25 06:30:15;;;;;;;;;;;19.20;74.70;;;;;;4492729;31;19999;-69
2022/10/25 06:32:41;;;;;;;;;;;19.20;74.70;;;;;;4492676;31;19977;-69
2022/10/25 06:35:06;;;;;;;;;;;19.20;74.70;;;;;;4492952;31;19984;-69
2022/10/25 06:37:32;;;;;;;;;;;19.20;74.80;;;;;;4492883;31;19977;-69
2022/10/25 06:39:57;;;;;;;;;;;19.30;74.90;;;;;;4493103;31;19977;-68
2022/10/25 06:42:23;;;;;;;;;;;19.30;74.90;;;;;;4492883;31;19981;-69
2022/10/25 06:44:49;;;;;;;;;;;19.20;74.80;;;;;;4492636;31;20394;-69
2022/10/25 06:47:14;;;;;;;;;;;19.20;74.90;;;;;;4492824;31;19966;-69
2022/10/25 06:49:40;;;;;;;;;;;19.20;74.90;;;;;;4492872;31;19962;-69
2022/10/25 06:52:06;;;;;;;;;;;19.20;75.00;;;;;;4492920;31;20369;-69
2022/10/25 06:54:32;;;;;;;;;;;19.30;75.20;;;;;;4492716;31;19984;-69
2022/10/25 06:56:58;;;;;;;;;;;19.30;75.20;;;;;;4492737;31;19966;-69
2022/10/25 06:59:24;;;;;;;;;;;19.20;75.20;;;;;;4478387;31;19973;-71
2022/10/25 07:01:49;;;;;;;;;;;19.30;75.20;;;;;;4492721;31;20569;-69
2022/10/25 07:04:15;;;;;;;;;;;19.20;75.10;;;;;;4492555;31;20040;-69
2022/10/25 07:06:41;;;;;;;;;;;19.20;75.00;;;;;;4492785;32;19962;-70
2022/10/25 07:09:09;;;;;;;;;;;19.20;75.10;;;;;;4492671;32;19973;-68
2022/10/25 07:11:34;;;;;;;;;;;19.20;75.40;;;;;;4492819;32;19996;-69
2022/10/25 07:14:02;;;;;;;;;;;19.30;75.50;;;;;;4492630;32;19977;-69
2022/10/25 07:16:28;;;;;;;;;;;19.30;75.40;;;;;;4492516;32;19985;-70
2022/10/25 07:18:57;;;;;;;;;;;19.20;75.30;;;;;;4478310;32;20427;-69
2022/10/25 07:21:23;;;;;;;;;;;19.20;75.40;;;;;;4492677;32;20430;-68
2022/10/25 07:23:49;;;;;;;;;;;19.30;75.40;;;;;;4492398;32;19961;-69
2022/10/25 07:26:17;;;;;;;;;;;19.20;75.40;;;;;;4492406;32;20040;-66
2022/10/25 07:28:44;;;;;;;;;;;19.20;75.30;;;;;;4492225;32;20058;-67
2022/10/25 07:31:11;;;;;;;;;;;19.20;75.40;;;;;;4492722;32;19978;-68
2022/10/25 07:33:36;;;;;;;;;;;19.20;75.40;;;;;;4492436;32;19974;-68
2022/10/25 07:36:02;;;;;;;;;;;19.20;75.40;;;;;;4492482;32;19980;-67
2022/10/25 07:38:28;;;;;;;;;;;19.20;75.40;;;;;;4492417;32;19962;-68
2022/10/25 07:40:55;;;;;;;;;;;19.20;75.40;;;;;;4492334;32;20100;-70
2022/10/25 07:43:20;;;;;;;;;;;19.20;75.30;;;;;;4477860;32;20046;-70
2022/10/25 07:45:48;;;;;;;;;;;19.20;76.20;;;;;;4491993;32;19969;-69
2022/10/25 07:48:14;;;;;;;;;;;19.20;75.40;;;;;;4492237;32;20499;-70
2022/10/25 07:50:39;;;;;;;;;;;19.20;75.40;;;;;;4492257;32;19970;-68
2022/10/25 07:53:05;;;;;;;;;;;19.20;75.30;;;;;;4492282;32;19982;-69
2022/10/25 07:55:32;;;;;;;;;;;19.20;75.40;;;;;;4492311;32;19981;-70
2022/10/25 07:58:01;;;;;;;;;;;19.20;75.40;;;;;;4492354;32;19962;-69
2022/10/25 08:00:27;;;;;;;;;;;19.20;75.50;;;;;;4492211;32;19984;-71
2022/10/25 08:02:52;;;;;;;;;;;19.30;74.90;;;;;;4491868;32;20009;-70
2022/10/25 08:05:18;;;;;;;;;;;19.40;74.80;;;;;;4492902;32;20369;-68
2022/10/25 08:07:44;;;;;;;;;;;19.60;74.20;;;;;;4479515;32;20299;-70
2022/10/25 08:10:09;;;;;;;;;;;19.80;73.90;;;;;;4496204;31;20307;-70
2022/10/25 08:12:35;;;;;;;;;;;19.90;73.70;;;;;;4498394;31;19969;-70
2022/10/25 08:15:01;;;;;;;;;;;19.90;73.70;;;;;;4481450;31;19962;-71
2022/10/25 08:17:26;;;;;;;;;;;19.80;73.60;;;;;;4494551;31;19992;-71
2022/10/25 08:19:52;;;;;;;;;;;19.80;73.90;;;;;;4494872;31;19980;-71
2022/10/25 08:22:18;;;;;;;;;;;19.70;74.00;;;;;;4494808;31;19981;-71
2022/10/25 08:24:43;;;;;;;;;;;19.70;74.10;;;;;;4494643;31;20383;-71
2022/10/25 08:27:09;;;;;;;;;;;19.70;74.30;;;;;;4494516;31;19970;-71
2022/10/25 08:29:35;;;;;;;;;;;19.60;74.40;;;;;;4494787;31;19974;-71
2022/10/25 08:32:00;;;;;;;;;;;19.60;74.60;;;;;;4494688;31;19961;-71
2022/10/25 08:34:26;;;;;;;;;;;19.60;74.60;;;;;;4494662;31;19965;-70
2022/10/25 08:36:52;;;;;;;;;;;19.60;74.70;;;;;;4494613;31;20364;-71
2022/10/25 08:39:18;;;;;;;;;;;19.60;74.90;;;;;;4494541;31;19983;-71
2022/10/25 08:41:49;;;;;;;;;;;19.60;75.00;;;;;;4494575;31;20350;-69
2022/10/25 08:44:19;;;;;;;;;;;19.60;75.00;;;;;;4494354;31;19966;-70
2022/10/25 08:46:54;;;;;;;;;;;19.60;74.70;;;;;;4494527;31;19992;-71
2022/10/25 08:49:25;;;;;;;;;;;19.70;74.30;;;;;;4479116;31;20059;-71
2022/10/25 08:51:52;;;;;;;;;;;19.70;74.20;;;;;;4480252;31;19970;-71
2022/10/25 08:54:18;;;;;;;;;;;19.70;74.10;;;;;;4494550;31;19985;-71
2022/10/25 08:56:45;;;;;;;;;;;19.70;74.10;;;;;;4494553;31;20391;-71
2022/10/25 08:59:14;;;;;;;;;;;19.70;74.00;;;;;;4495009;31;19977;-71
2022/10/25 09:01:43;;;;;;;;;;;19.60;74.00;;;;;;4480055;31;19981;-71
2022/10/25 09:04:09;;;;;;;;;;;19.60;74.10;;;;;;4494122;31;19978;-71
2022/10/25 09:06:39;;;;;;;;;;;19.60;74.10;;;;;;4494175;31;20050;-67
2022/10/25 09:09:15;;;;;;;;;;;19.60;74.20;;;;;;4494320;31;19981;-70
2022/10/25 09:11:46;;;;;;;;;;;19.60;74.20;;;;;;4494072;31;19982;-71
2022/10/25 09:14:21;;;;;;;;;;;19.60;74.20;;;;;;4494158;31;20292;-71
2022/10/25 09:16:46;;;;;;;;;;;19.60;74.30;;;;;;4493478;31;20120;-72
2022/10/25 09:19:15;;;;;;;;;;;19.50;74.20;;;;;;4493969;31;20260;-71
2022/10/25 09:21:41;;;;;;;;;;;19.50;74.30;;;;;;4493732;31;19988;-70
2022/10/25 09:24:15;;;;;;;;;;;19.50;74.40;;;;;;4493883;31;19962;-71
2022/10/25 09:27:07;;;;;;;;;;;19.50;74.40;;;;;;4479822;31;19977;-73
2022/10/25 09:29:33;;;;;;;;;;;19.40;74.40;;;;;;4491542;31;20005;-78
2022/10/25 09:32:00;;;;;;;;;;;19.40;74.40;;;;;;4493764;31;20402;-71
2022/10/25 09:34:28;;;;;;;;;;;19.40;74.50;;;;;;4493917;31;20081;-70
2022/10/25 09:36:58;;;;;;;;;;;19.40;74.50;;;;;;4493611;31;20489;-71
2022/10/25 09:39:35;;;;;;;;;;;19.40;74.50;;;;;;4493652;31;20017;-71
2022/10/25 09:42:01;;;;;;;;;;;19.40;74.60;;;;;;4493666;31;19985;-71
2022/10/25 09:44:27;;;;;;;;;;;19.40;74.60;;;;;;4493352;31;20051;-71
2022/10/25 09:46:56;;;;;;;;;;;19.40;74.50;;;;;;4493571;31;20009;-70
2022/10/25 09:49:40;;;;;;;;;;;19.40;74.50;;;;;;4493444;31;20387;-71
2022/10/25 09:52:12;;;;;;;;;;;19.40;74.70;;;;;;4493244;31;20025;-71
2022/10/25 09:54:43;;;;;;;;;;;19.30;74.60;;;;;;4493101;31;20461;-71
2022/10/25 09:57:10;;;;;;;;;;;19.30;74.60;;;;;;4493359;31;20315;-71
2022/10/25 09:59:35;;;;;;;;;;;19.40;75.50;;;;;;4493658;31;19965;-71
2022/10/25 10:02:01;;;;;;;;;;;19.30;74.70;;;;;;4493274;31;20102;-71
2022/10/25 10:04:37;;;;;;;;;;;19.30;74.70;;;;;;4493130;31;19974;-71
2022/10/25 10:07:19;;;;;;;;;;;19.30;74.80;;;;;;4493257;31;20028;-71
2022/10/25 10:09:45;;;;;;;;;;;19.30;74.80;;;;;;4493243;31;20099;-71
2022/10/25 10:12:17;;;;;;;;;;;19.30;74.80;;;;;;4493092;31;20087;-70
2022/10/25 10:14:57;;;;;;;;;;;19.30;74.80;;;;;;4493218;31;20067;-68
2022/10/25 10:17:23;;;;;;;;;;;19.30;74.80;;;;;;4486402;31;20017;-68
2022/10/25 10:20:19;;;;;;;;;;;19.30;74.80;;;;;;4493136;31;19996;-69
2022/10/25 10:22:46;;;;;;;;;;;19.30;74.80;;;;;;4489155;31;19989;-70
2022/10/25 10:25:14;;;;;;;;;;;19.30;74.70;;;;;;4492948;31;19999;-70
2022/10/25 10:27:40;;;;;;;;;;;19.30;74.70;;;;;;4493225;31;19980;-70
2022/10/25 10:30:07;;;;;;;;;;;19.30;74.80;;;;;;4492681;31;19969;-70
2022/10/25 10:32:34;;;;;;;;;;;19.30;74.90;;;;;;4492830;31;19982;-70
2022/10/25 10:35:01;;;;;;;;;;;19.30;75.00;;;;;;4492580;31;19973;-70
2022/10/25 10:37:28;;;;;;;;;;;19.30;75.10;;;;;;4493098;31;20375;-70
2022/10/25 10:39:57;;;;;;;;;;;19.40;75.20;;;;;;4492958;31;20017;-70
2022/10/25 10:42:32;;;;;;;;;;;19.40;75.40;;;;;;4491791;31;20323;-70
2022/10/25 10:45:06;;;;;;;;;;;19.30;76.20;;;;;;4492744;31;20027;-70
2022/10/25 10:47:44;;;;;;;;;;;19.30;75.40;;;;;;4492827;31;19974;-70
2022/10/25 10:50:19;;;;;;;;;;;19.30;75.50;;;;;;4492677;31;19982;-69
2022/10/25 10:52:45;;;;;;;;;;;19.40;75.40;;;;;;4492725;31;20138;-70
2022/10/25 10:55:30;;;;;;;;;;;19.40;75.50;;;;;;4492710;31;19969;-69
2022/10/25 10:58:16;;;;;;;;;;;19.40;75.50;;;;;;4492670;31;20418;-69
2022/10/25 11:00:53;;;;;;;;;;;19.40;75.50;;;;;;4492995;31;19987;-69
2022/10/25 11:03:38;;;;;;;;;;;19.30;75.50;;;;;;4492940;31;20383;-69
2022/10/25 11:06:12;;;;;;;;;;;19.40;75.40;;;;;;4492661;31;20015;-69
2022/10/25 11:08:38;;;;;;;;;;;19.40;75.40;;;;;;4491174;31;20291;-70
2022/10/25 11:11:22;;;;;;;;;;;19.40;75.50;;;;;;4492606;31;20008;-70
2022/10/25 11:13:51;;;;;;;;;;;19.40;75.50;;;;;;4492339;31;20055;-71
2022/10/25 11:16:17;;;;;;;;;;;19.40;75.50;;;;;;4492247;32;20076;-71
2022/10/25 11:18:54;;;;;;;;;;;19.40;75.50;;;;;;4492350;32;20076;-70
2022/10/25 11:21:40;;;;;;;;;;;19.40;75.40;;;;;;4492766;32;20111;-71
2022/10/25 11:24:06;;;;;;;;;;;19.40;75.50;;;;;;4483999;32;19969;-72
2022/10/25 11:26:50;;;;;;;;;;;19.40;75.50;;;;;;4492526;32;19977;-71
2022/10/25 11:29:25;;;;;;;;;;;19.40;75.50;;;;;;4492633;32;19988;-71
2022/10/25 11:32:09;;;;;;;;;;;19.40;75.40;;;;;;4492298;32;20493;-71
2022/10/25 11:34:38;;;;;;;;;;;19.40;75.40;;;;;;4492853;32;20064;-71
2022/10/25 11:37:20;;;;;;;;;;;19.40;75.40;;;;;;4492377;32;20068;-71
2022/10/25 11:39:50;;;;;;;;;;;19.40;75.50;;;;;;4492361;32;20382;-70
2022/10/25 11:42:31;;;;;;;;;;;19.40;75.40;;;;;;4492067;32;19990;-71
2022/10/25 11:44:56;;;;;;;;;;;19.40;75.10;;;;;;4493489;31;20115;-70
2022/10/25 11:47:45;;;;;;;;;;;19.50;74.90;;;;;;4495424;31;19976;-71
2022/10/25 11:50:10;;;;;;;;;;;19.60;74.80;;;;;;4495023;31;20054;-71
2022/10/25 11:52:54;;;;;;;;;;;19.60;74.70;;;;;;4495246;31;19974;-71
2022/10/25 11:55:38;;;;;;;;;;;19.70;74.50;;;;;;4481384;31;20088;-71
2022/10/25 11:58:23;;;;;;;;;;;19.80;74.20;;;;;;4495119;31;20334;-71
2022/10/25 12:00:54;;;;;;;;;;;19.90;74.00;;;;;;4495493;31;19989;-71
2022/10/25 12:03:20;;;;;;;;;;;20.00;73.80;;;;;;4495195;31;20060;-70
2022/10/25 12:05:58;;;;;;;;;;;20.20;73.70;;;;;;4494625;31;19961;-71
2022/10/25 12:08:32;;;;;;;;;;;20.30;73.30;;;;;;4495356;31;20019;-72
2022/10/25 12:11:13;;;;;;;;;;;20.40;73.10;;;;;;4495148;31;20371;-71
2022/10/25 12:13:42;;;;;;;;;;;20.60;72.80;;;;;;4492883;31;19970;-71
2022/10/25 12:16:10;;;;;;;;;;;20.70;72.50;;;;;;4494560;31;20846;-71
2022/10/25 12:18:37;;;;;;;;;;;20.80;72.30;;;;;;4495200;31;19987;-71
2022/10/25 12:21:03;;;;;;;;;;;20.90;72.10;;;;;;4494424;31;19992;-72
2022/10/25 12:23:30;;;;;;;;;;;21.00;71.90;;;;;;4494024;31;20303;-71
2022/10/25 12:26:01;;;;;;;;;;;21.10;71.70;;;;;;4494949;31;19989;-72
2022/10/25 12:28:28;;;;;;;;;;;21.20;71.50;;;;;;4494941;31;19984;-72
2022/10/25 12:31:14;;;;;;;;;;;21.20;71.30;;;;;;4494479;31;20017;-73
2022/10/25 12:34:01;;;;;;;;;;;21.30;71.20;;;;;;4486666;31;20100;-72
2022/10/25 12:36:31;;;;;;;;;;;21.30;71.10;;;;;;4486168;31;20166;-73
2022/10/25 12:38:58;;;;;;;;;;;21.40;71.00;;;;;;4494930;31;20087;-72
2022/10/25 12:41:26;;;;;;;;;;;21.40;70.90;;;;;;4494365;31;20001;-72
2022/10/25 12:44:21;;;;;;;;;;;21.40;70.90;;;;;;4494518;31;19969;-71
2022/10/25 12:47:06;;;;;;;;;;;21.40;70.70;;;;;;4483842;31;19993;-71
2022/10/25 12:49:49;;;;;;;;;;;21.40;70.70;;;;;;4495111;31;19981;-71
2022/10/25 12:52:27;;;;;;;;;;;21.50;70.80;;;;;;4494567;31;19969;-71
2022/10/25 12:55:11;;;;;;;;;;;21.50;70.70;;;;;;4494381;31;20322;-71
2022/10/25 12:57:50;;;;;;;;;;;21.50;70.60;;;;;;4493861;31;19977;-72
2022/10/25 13:00:21;;;;;;;;;;;21.60;70.50;;;;;;4494647;31;20297;-73
2022/10/25 13:02:53;;;;;;;;;;;21.60;70.50;;;;;;4494233;31;20303;-73
2022/10/25 13:05:32;;;;;;;;;;;21.70;70.50;;;;;;4494618;31;20040;-72
2022/10/25 13:07:59;;;;;;;;;;;21.70;70.50;;;;;;4494274;31;19991;-72
2022/10/25 13:10:25;;;;;;;;;;;21.70;70.40;;;;;;4494415;31;19978;-72
2022/10/25 13:12:59;;;;;;;;;;;21.80;70.30;;;;;;4493899;31;19970;-72
2022/10/25 13:15:24;;;;;;;;;;;21.80;70.30;;;;;;4494189;31;20013;-71
2022/10/25 13:18:13;;;;;;;;;;;21.80;70.30;;;;;;4493605;31;20012;-71
2022/10/25 13:20:43;;;;;;;;;;;21.80;70.30;;;;;;4464901;31;19981;-71
2022/10/25 13:23:28;;;;;;;;;;;21.90;70.30;;;;;;4494393;31;19988;-71
2022/10/25 13:25:53;;;;;;;;;;;21.90;70.20;;;;;;4494497;31;20058;-71
2022/10/25 13:28:27;;;;;;;;;;;21.90;70.10;;;;;;4494098;31;20028;-72
2022/10/25 13:31:13;;;;;;;;;;;21.90;70.10;;;;;;4493706;31;19992;-72
2022/10/25 13:33:39;;;;;;;;;;;21.90;70.00;;;;;;4493597;31;20338;-71
2022/10/25 13:36:05;;;;;;;;;;;22.00;70.00;;;;;;4493437;31;19997;-71
2022/10/25 13:38:32;;;;;;;;;;;22.00;70.00;;;;;;4493482;31;19984;-71
2022/10/25 13:41:17;;;;;;;;;;;22.00;69.90;;;;;;4493499;31;19977;-71
2022/10/25 13:44:00;;;;;;;;;;;22.10;70.00;;;;;;4493788;31;19984;-71
2022/10/25 13:46:29;;;;;;;;;;;22.00;70.00;;;;;;4493559;31;20464;-72
2022/10/25 13:48:56;;;;;;;;;;;22.00;70.00;;;;;;4493259;31;20032;-72
2022/10/25 13:51:22;;;;;;;;;;;22.10;70.10;;;;;;4493512;31;20095;-71
2022/10/25 13:53:50;;;;;;;;;;;22.00;70.10;;;;;;4493186;31;19973;-71
2022/10/25 13:56:30;;;;;;;;;;;22.00;70.20;;;;;;4493438;31;20040;-71
2022/10/25 13:58:57;;;;;;;;;;;22.00;70.20;;;;;;4493567;31;20410;-71
2022/10/25 14:01:24;;;;;;;;;;;22.00;70.10;;;;;;4493481;31;19973;-71
2022/10/25 14:03:50;;;;;;;;;;;22.10;70.20;;;;;;4493314;31;20478;-71
2022/10/25 14:06:42;;;;;;;;;;;22.00;70.20;;;;;;4493148;31;20074;-71
2022/10/25 14:09:27;;;;;;;;;;;22.00;70.30;;;;;;4490049;31;20021;-71
2022/10/25 14:11:54;;;;;;;;;;;22.00;70.40;;;;;;4493011;31;19973;-71
2022/10/25 14:14:20;;;;;;;;;;;22.00;70.40;;;;;;4493135;31;20106;-72
2022/10/25 14:16:52;;;;;;;;;;;21.90;70.40;;;;;;4492998;31;20099;-71
2022/10/25 14:19:28;;;;;;;;;;;21.90;70.50;;;;;;4493610;31;20056;-72
2022/10/25 14:21:54;;;;;;;;;;;21.90;70.50;;;;;;4493503;31;20432;-72
2022/10/25 14:24:20;;;;;;;;;;;21.90;70.50;;;;;;4493155;31;19978;-72
2022/10/25 14:27:04;;;;;;;;;;;21.90;70.50;;;;;;4493307;31;19962;-71
2022/10/25 14:29:30;;;;;;;;;;;22.00;70.60;;;;;;4493080;31;20319;-72